createdAt,value
2023-03-22T00:00:37.260Z,12.46
2023-03-22T00:03:04.050Z,12.30
2023-03-22T00:05:30.627Z,12.41
2023-03-22T00:07:57.183Z,12.43
2023-03-22T00:10:23.755Z,12.32
2023-03-22T00:12:50.338Z,12.09
2023-03-22T00:15:16.883Z,12.28
2023-03-22T00:17:43.466Z,12.36
2023-03-22T00:20:10.096Z,12.30
2023-03-22T00:22:36.756Z,12.27
2023-03-22T00:25:03.410Z,12.05
2023-03-22T00:27:29.941Z,12.16
2023-03-22T00:29:56.485Z,12.18
2023-03-22T00:32:23.071Z,12.13
2023-03-22T00:34:49.644Z,11.98
2023-03-22T00:37:16.209Z,12.05
2023-03-22T00:39:42.807Z,11.73
2023-03-22T00:42:09.379Z,11.81
2023-03-22T00:44:36.041Z,11.72
2023-03-22T00:47:02.672Z,11.83
2023-03-22T00:49:29.268Z,11.80
2023-03-22T00:51:55.862Z,11.87
2023-03-22T00:54:22.446Z,11.74
2023-03-22T00:56:49.041Z,11.71
2023-03-22T00:59:15.579Z,11.68
2023-03-22T01:01:42.151Z,11.55
2023-03-22T01:04:08.698Z,11.40
2023-03-22T01:06:35.289Z,11.71
2023-03-22T01:09:01.862Z,11.67
2023-03-22T01:11:28.416Z,11.49
2023-03-22T01:13:55.037Z,11.45
2023-03-22T01:16:21.633Z,11.83
2023-03-22T01:18:48.280Z,11.72
2023-03-22T01:21:14.845Z,11.92
2023-03-22T01:23:41.410Z,12.02
2023-03-22T01:26:08.134Z,11.83
2023-03-22T01:28:34.838Z,11.67
2023-03-22T01:31:01.613Z,11.80
2023-03-22T01:33:28.213Z,11.64
2023-03-22T01:35:54.815Z,11.93
2023-03-22T01:38:21.400Z,11.75
2023-03-22T01:40:47.958Z,11.81
2023-03-22T01:43:14.760Z,11.47
2023-03-22T01:45:41.347Z,11.40
2023-03-22T01:48:07.962Z,11.35
2023-03-22T01:50:34.575Z,11.47
2023-03-22T01:53:01.142Z,11.44
2023-03-22T01:55:27.692Z,11.39
2023-03-22T01:57:54.245Z,11.17
2023-03-22T02:00:21.065Z,11.14
2023-03-22T02:02:47.729Z,11.32
2023-03-22T02:05:14.389Z,11.35
2023-03-22T02:07:40.930Z,11.47
2023-03-22T02:10:07.540Z,11.23
2023-03-22T02:12:34.079Z,11.09
2023-03-22T02:15:00.658Z,11.30
2023-03-22T02:17:27.253Z,11.31
2023-03-22T02:19:53.801Z,11.32
2023-03-22T02:22:20.410Z,11.31
2023-03-22T02:24:47.022Z,11.35
2023-03-22T02:27:13.730Z,11.33
2023-03-22T02:29:40.334Z,11.37
2023-03-22T02:32:06.887Z,11.23
2023-03-22T02:34:33.431Z,11.23
2023-03-22T02:37:00.053Z,11.33
2023-03-22T02:39:26.668Z,11.44
2023-03-22T02:41:53.230Z,11.50
2023-03-22T02:44:19.818Z,11.48
2023-03-22T02:46:46.511Z,11.52
2023-03-22T02:49:13.132Z,11.59
2023-03-22T02:51:39.677Z,11.46
2023-03-22T02:54:06.241Z,11.45
2023-03-22T02:56:32.796Z,11.24
2023-03-22T02:58:59.460Z,11.27
2023-03-22T03:01:26.065Z,11.22
2023-03-22T03:03:52.708Z,11.14
2023-03-22T03:06:19.255Z,11.14
2023-03-22T03:11:35.938Z,11.30
2023-03-22T03:14:02.517Z,11.21
2023-03-22T03:16:29.179Z,10.94
2023-03-22T03:18:55.940Z,11.13
2023-03-22T03:21:22.522Z,11.15
2023-03-22T03:23:49.132Z,10.90
2023-03-22T03:26:15.722Z,11.00
2023-03-22T03:28:42.306Z,11.09
2023-03-22T03:31:08.910Z,10.82
2023-03-22T03:33:35.470Z,10.83
2023-03-22T03:36:02.053Z,10.93
2023-03-22T03:38:28.635Z,10.97
2023-03-22T03:40:55.297Z,11.11
2023-03-22T03:43:21.847Z,11.17
2023-03-22T03:45:48.516Z,10.78
2023-03-22T03:48:17.678Z,10.90
2023-03-22T03:50:44.224Z,10.98
2023-03-22T03:53:10.840Z,10.85
2023-03-22T03:55:37.469Z,10.98
2023-03-22T03:58:04.069Z,10.97
2023-03-22T04:00:30.637Z,10.95
2023-03-22T04:02:57.175Z,11.05
2023-03-22T04:05:23.725Z,11.16
2023-03-22T04:07:50.306Z,11.05
2023-03-22T04:10:16.882Z,11.18
2023-03-22T04:12:43.454Z,11.06
2023-03-22T04:15:10.023Z,11.05
2023-03-22T04:17:36.625Z,11.23
2023-03-22T04:20:05.372Z,11.36
2023-03-22T04:22:32.388Z,11.50
2023-03-22T04:24:58.945Z,11.19
2023-03-22T04:27:25.502Z,11.28
2023-03-22T04:29:52.060Z,11.23
2023-03-22T04:32:18.645Z,11.10
2023-03-22T04:34:45.237Z,11.15
2023-03-22T04:37:11.845Z,11.23
2023-03-22T04:39:38.668Z,11.47
2023-03-22T04:42:05.231Z,11.41
2023-03-22T04:44:31.901Z,11.42
2023-03-22T04:46:58.469Z,11.55
2023-03-22T04:49:25.029Z,11.59
2023-03-22T04:51:51.582Z,11.69
2023-03-22T04:54:18.171Z,11.43
2023-03-22T04:56:44.718Z,11.17
2023-03-22T04:59:11.327Z,11.12
2023-03-22T05:01:37.961Z,11.32
2023-03-22T05:04:04.527Z,11.68
2023-03-22T05:06:31.096Z,11.57
2023-03-22T05:08:57.647Z,11.70
2023-03-22T05:11:24.195Z,11.59
2023-03-22T05:13:50.808Z,11.83
2023-03-22T05:16:17.548Z,11.69
2023-03-22T05:18:46.006Z,11.89
2023-03-22T05:21:12.583Z,12.01
2023-03-22T05:23:39.137Z,12.14
2023-03-22T05:26:05.670Z,12.14
2023-03-22T05:28:32.274Z,12.29
2023-03-22T05:30:58.894Z,12.35
2023-03-22T05:33:25.502Z,12.43
2023-03-22T05:35:52.182Z,12.36
2023-03-22T05:38:18.838Z,12.20
2023-03-22T05:40:45.400Z,12.52
2023-03-22T05:43:12.004Z,12.44
2023-03-22T05:45:38.714Z,12.63
2023-03-22T05:48:05.513Z,12.63
2023-03-22T05:50:32.165Z,12.83
2023-03-22T05:52:58.927Z,12.84
2023-03-22T05:55:25.515Z,12.85
2023-03-22T05:57:52.068Z,13.03
2023-03-22T06:00:18.645Z,13.18
2023-03-22T06:02:45.247Z,12.95
2023-03-22T06:05:11.852Z,12.87
2023-03-22T06:07:39.452Z,12.71
2023-03-22T06:10:07.934Z,12.81
2023-03-22T06:12:34.532Z,12.69
2023-03-22T06:15:01.079Z,12.98
2023-03-22T06:17:27.655Z,13.16
2023-03-22T06:19:54.287Z,13.42
2023-03-22T06:22:20.861Z,13.64
2023-03-22T06:24:47.453Z,13.87
2023-03-22T06:27:14.050Z,14.05
2023-03-22T06:29:40.616Z,14.17
2023-03-22T06:32:07.190Z,14.21
2023-03-22T06:34:33.733Z,14.32
2023-03-22T06:37:00.421Z,14.42
2023-03-22T06:39:27.005Z,14.55
2023-03-22T06:41:53.675Z,14.68
2023-03-22T06:44:20.226Z,14.62
2023-03-22T06:46:46.781Z,14.84
2023-03-22T06:49:13.400Z,14.86
2023-03-22T06:51:39.983Z,14.81
2023-03-22T06:54:06.573Z,14.85
2023-03-22T06:56:33.137Z,15.13
2023-03-22T06:58:59.702Z,15.12
2023-03-22T07:01:26.298Z,14.77
2023-03-22T07:03:52.893Z,14.94
2023-03-22T07:06:19.537Z,15.35
2023-03-22T07:08:46.161Z,15.27
2023-03-22T07:11:12.705Z,15.35
2023-03-22T07:13:39.295Z,15.22
2023-03-22T07:16:05.881Z,15.43
2023-03-22T07:18:32.515Z,15.59
2023-03-22T07:20:59.067Z,16.00
2023-03-22T07:23:25.679Z,16.02
2023-03-22T07:25:52.233Z,16.21
2023-03-22T07:28:18.802Z,16.39
2023-03-22T07:30:45.327Z,16.56
2023-03-22T07:33:11.958Z,16.51
2023-03-22T07:35:38.580Z,16.30
2023-03-22T07:38:05.169Z,16.40
2023-03-22T07:40:31.765Z,16.46
2023-03-22T07:42:58.321Z,16.69
2023-03-22T07:45:24.953Z,16.52
2023-03-22T07:47:51.607Z,16.51
2023-03-22T07:50:18.220Z,16.52
2023-03-22T07:52:44.799Z,16.43
2023-03-22T07:55:11.460Z,16.66
2023-03-22T07:57:37.995Z,16.66
2023-03-22T08:00:04.548Z,16.59
2023-03-22T08:02:31.169Z,16.71
2023-03-22T08:04:57.724Z,17.17
2023-03-22T08:07:24.394Z,17.45
2023-03-22T08:09:50.951Z,17.46
2023-03-22T08:12:17.520Z,17.50
2023-03-22T08:14:44.080Z,17.77
2023-03-22T08:17:10.597Z,17.66
2023-03-22T08:19:37.252Z,17.97
2023-03-22T08:22:03.812Z,17.85
2023-03-22T08:24:30.355Z,17.62
2023-03-22T08:26:56.923Z,17.87
2023-03-22T08:29:23.508Z,18.14
2023-03-22T08:31:50.110Z,18.44
2023-03-22T08:34:16.659Z,18.43
2023-03-22T08:36:43.209Z,18.51
2023-03-22T08:39:09.860Z,18.91
2023-03-22T08:41:36.449Z,18.95
2023-03-22T08:44:03.013Z,18.92
2023-03-22T08:46:29.579Z,19.05
2023-03-22T08:48:56.223Z,19.03
2023-03-22T08:51:22.804Z,18.73
2023-03-22T08:53:49.355Z,19.03
2023-03-22T08:56:15.923Z,19.47
2023-03-22T08:58:42.493Z,19.92
2023-03-22T09:01:09.147Z,19.92
2023-03-22T09:03:35.758Z,19.93
2023-03-22T09:06:02.293Z,19.67
2023-03-22T09:08:28.866Z,19.67
2023-03-22T09:10:55.443Z,19.83
2023-03-22T09:13:22.025Z,20.19
2023-03-22T09:15:48.618Z,20.27
2023-03-22T09:18:15.221Z,20.50
2023-03-22T09:20:42.266Z,20.19
2023-03-22T09:23:09.155Z,20.29
2023-03-22T09:25:35.727Z,20.75
2023-03-22T09:28:02.347Z,21.22
2023-03-22T09:30:29.027Z,21.80
2023-03-22T09:32:55.643Z,21.36
2023-03-22T09:35:22.210Z,21.25
2023-03-22T09:37:48.784Z,20.82
2023-03-22T09:40:15.334Z,21.21
2023-03-22T09:42:41.955Z,21.48
2023-03-22T09:45:08.504Z,22.43
2023-03-22T09:47:44.377Z,22.87
2023-03-22T09:50:12.003Z,23.44
2023-03-22T09:52:38.529Z,23.12
2023-03-22T09:55:05.241Z,22.44
2023-03-22T09:57:31.812Z,22.05
2023-03-22T09:59:58.384Z,22.65
2023-03-22T10:02:25.108Z,23.08
2023-03-22T10:04:51.725Z,22.99
2023-03-22T10:07:18.312Z,22.65
2023-03-22T10:09:44.908Z,22.82
2023-03-22T10:12:11.453Z,22.19
2023-03-22T10:14:38.027Z,22.02
2023-03-22T10:17:04.605Z,22.80
2023-03-22T10:19:31.288Z,22.70
2023-03-22T10:21:57.866Z,23.52
2023-03-22T10:24:24.437Z,23.88
2023-03-22T10:26:51.064Z,22.55
2023-03-22T10:29:17.646Z,22.30
2023-03-22T10:31:44.296Z,22.65
2023-03-22T10:34:10.954Z,23.95
2023-03-22T10:36:37.509Z,24.34
2023-03-22T10:39:04.101Z,24.56
2023-03-22T10:41:30.675Z,24.37
2023-03-22T10:43:57.217Z,24.78
2023-03-22T10:46:23.804Z,25.08
2023-03-22T10:48:50.394Z,24.58
2023-03-22T10:51:16.952Z,25.17
2023-03-22T10:53:43.516Z,24.88
2023-03-22T10:56:10.073Z,25.03
2023-03-22T10:58:36.654Z,24.93
2023-03-22T11:01:03.356Z,24.66
2023-03-22T11:03:30.053Z,24.64
2023-03-22T11:05:56.601Z,23.80
2023-03-22T11:08:23.184Z,24.44
2023-03-22T11:10:49.846Z,24.05
2023-03-22T11:13:16.519Z,24.16
2023-03-22T11:15:43.059Z,24.99
2023-03-22T11:18:09.602Z,25.05
2023-03-22T11:20:36.247Z,25.03
2023-03-22T11:23:02.831Z,25.15
2023-03-22T11:25:29.415Z,24.38
2023-03-22T11:27:55.949Z,24.91
2023-03-22T11:30:22.581Z,24.78
2023-03-22T11:32:49.204Z,23.93
2023-03-22T11:35:15.877Z,25.33
2023-03-22T11:37:42.504Z,26.07
2023-03-22T11:40:09.184Z,24.78
2023-03-22T11:42:35.744Z,25.47
2023-03-22T11:45:02.343Z,25.65
2023-03-22T11:47:28.944Z,25.59
2023-03-22T11:49:55.549Z,24.35
2023-03-22T11:52:22.098Z,25.16
2023-03-22T11:54:48.645Z,26.08
2023-03-22T11:57:15.200Z,26.04
2023-03-22T11:59:41.755Z,26.93
2023-03-22T12:02:08.368Z,26.77
2023-03-22T12:04:35.042Z,27.65
2023-03-22T12:07:01.650Z,28.21
2023-03-22T12:09:28.213Z,27.92
2023-03-22T12:11:54.787Z,27.82
2023-03-22T12:14:21.470Z,27.33
2023-03-22T12:16:48.140Z,26.64
2023-03-22T12:19:14.792Z,26.98
2023-03-22T12:21:41.358Z,27.41
2023-03-22T12:24:07.952Z,26.75
2023-03-22T12:26:34.517Z,25.84
2023-03-22T12:29:01.092Z,24.78
2023-03-22T12:31:27.964Z,25.35
2023-03-22T12:33:54.580Z,26.36
2023-03-22T12:36:21.190Z,26.79
2023-03-22T12:38:47.789Z,25.92
2023-03-22T12:41:14.366Z,26.33
2023-03-22T12:43:40.906Z,25.07
2023-03-22T12:46:09.578Z,25.18
2023-03-22T12:48:36.263Z,25.55
2023-03-22T12:51:02.976Z,26.10
2023-03-22T12:53:29.558Z,25.12
2023-03-22T12:55:56.106Z,25.39
2023-03-22T12:58:22.711Z,26.06
2023-03-22T13:00:49.368Z,26.73
2023-03-22T13:03:16.110Z,27.33
2023-03-22T13:05:42.955Z,27.37
2023-03-22T13:08:09.618Z,27.92
2023-03-22T13:10:36.212Z,28.26
2023-03-22T13:13:02.790Z,27.51
2023-03-22T13:15:40.490Z,27.90
2023-03-22T13:18:08.220Z,28.27
2023-03-22T13:20:34.779Z,28.13
2023-03-22T13:23:01.356Z,28.41
2023-03-22T13:25:27.911Z,27.14
2023-03-22T13:27:54.565Z,27.82
2023-03-22T13:30:21.160Z,27.56
2023-03-22T13:32:47.733Z,27.65
2023-03-22T13:35:14.343Z,27.53
2023-03-22T13:37:40.898Z,27.34
2023-03-22T13:40:07.445Z,26.24
2023-03-22T13:42:34.057Z,26.35
2023-03-22T13:45:00.623Z,26.40
2023-03-22T13:47:27.300Z,26.04
2023-03-22T13:49:53.925Z,26.27
2023-03-22T13:52:20.512Z,26.85
2023-03-22T13:54:47.074Z,26.85
2023-03-22T13:57:13.646Z,27.75
2023-03-22T13:59:40.218Z,27.46
2023-03-22T14:02:06.841Z,27.64
2023-03-22T14:04:33.460Z,27.99
2023-03-22T14:07:00.011Z,28.12
2023-03-22T14:09:26.578Z,28.37
2023-03-22T14:11:54.774Z,28.44
2023-03-22T14:14:22.406Z,27.99
2023-03-22T14:16:48.947Z,28.05
2023-03-22T14:19:15.550Z,28.78
2023-03-22T14:21:42.104Z,28.49
